Back to Top

Language: 

My Weather Underground Personal Weather Station Historical Data with Graphs...

Delerius Weather Station Historical Data
Daily Summary for January 19, 2018 Units:  Metric    English   Both
« Previous Day
Next Day »
Daily Weekly Monthly Yearly Custom
  High: Low: Average:
Temperature: 5.5 °C 1.8 °C 2.9 °C
Dew Point: 2.4 °C 0.5 °C 1.1 °C
Humidity: 92 % 77 % 88 %
Wind Speed: 32.2 km/h 1.6 km/h 16.3 km/h
Wind Gust: 49.9 km/h - -
Wind:- - West
Pressure: 1004.6 hPa 1002.6 hPa -
Precipitation: 1.02 mm    
Historical Graphs
 
 
Tabular Data for January 19, 2018
Time Temperature Dew Point Pressure Wind Wind Speed Wind Gust Humidity Rainfall Rate (Hourly) solar Conditions
00:00 2.2 °C 0.9 °C 1002.6 hPa WNW 8 km/h 11.3 km/h 91 % 0 mm 0 W/m2
00:05 2.2 °C 0.9 °C 1002.6 hPa WNW 1.6 km/h 4.8 km/h 91 % 0 mm 0 W/m2
00:10 2.1 °C 0.8 °C 1002.6 hPa WNW 3.2 km/h 9.7 km/h 91 % 0 mm 0 W/m2
00:15 2 °C 0.7 °C 1002.6 hPa West 4.8 km/h 9.7 km/h 91 % 0 mm 0 W/m2
00:20 1.9 °C 0.6 °C 1002.9 hPa West 8 km/h 17.7 km/h 91 % 0 mm 0 W/m2
00:25 1.9 °C 0.6 °C 1002.9 hPa West 9.7 km/h 12.9 km/h 91 % 0 mm 0 W/m2
00:30 2 °C 0.8 °C 1002.9 hPa West 9.7 km/h 19.3 km/h 92 % 0 mm 0 W/m2
00:35 2.1 °C 0.9 °C 1002.9 hPa West 11.3 km/h 19.3 km/h 92 % 0 mm 0 W/m2
00:40 2.2 °C 1.1 °C 1002.9 hPa WNW 14.5 km/h 24.1 km/h 92 % 0 mm 0 W/m2
00:45 2.3 °C 1 °C 1002.6 hPa West 14.5 km/h 19.3 km/h 91 % 0 mm 0 W/m2
00:50 2.4 °C 1.1 °C 1002.6 hPa WNW 11.3 km/h 17.7 km/h 91 % 0 mm 0 W/m2
00:55 2.5 °C 1.2 °C 1002.9 hPa West 14.5 km/h 22.5 km/h 91 % 0 mm 0 W/m2
01:00 2.6 °C 1.3 °C 1002.6 hPa West 12.9 km/h 20.9 km/h 91 % 0 mm 0 W/m2
01:05 2.6 °C 1.1 °C 1002.9 hPa WSW 8 km/h 11.3 km/h 90 % 0 mm 0 W/m2
01:10 2.4 °C 0.9 °C 1002.9 hPa WSW 9.7 km/h 14.5 km/h 90 % 0 mm 0 W/m2
01:15 2.4 °C 0.9 °C 1002.9 hPa West 8 km/h 14.5 km/h 90 % 0 mm 0 W/m2
01:20 2.3 °C 0.8 °C 1002.9 hPa West 12.9 km/h 17.7 km/h 90 % 0 mm 0 W/m2
01:25 2.4 °C 1.1 °C 1002.9 hPa West 11.3 km/h 22.5 km/h 91 % 0 mm 0 W/m2
01:30 2.3 °C 1 °C 1002.9 hPa West 16.1 km/h 32.2 km/h 91 % 0 mm 0 W/m2
01:36 2.3 °C 1 °C 1002.9 hPa WNW 14.5 km/h 24.1 km/h 91 % 0 mm 0 W/m2
01:41 2.3 °C 1 °C 1002.9 hPa WNW 14.5 km/h 25.7 km/h 91 % 0 mm 0 W/m2
01:46 2.3 °C 1 °C 1002.9 hPa West 16.1 km/h 25.7 km/h 91 % 0 mm 0 W/m2
01:50 2.3 °C 1 °C 1002.9 hPa West 14.5 km/h 22.5 km/h 91 % 0 mm 0 W/m2
01:56 2.3 °C 1 °C 1002.9 hPa WNW 19.3 km/h 29 km/h 91 % 0 mm 0 W/m2
02:01 2.3 °C 1 °C 1002.9 hPa West 16.1 km/h 25.7 km/h 91 % 0 mm 0 W/m2
02:06 2.4 °C 1.1 °C 1002.9 hPa WNW 16.1 km/h 24.1 km/h 91 % 0 mm 0 W/m2
02:11 2.3 °C 1 °C 1002.9 hPa WNW 16.1 km/h 25.7 km/h 91 % 0 mm 0 W/m2
02:16 2.4 °C 1.1 °C 1003.3 hPa WNW 19.3 km/h 29 km/h 91 % 0 mm 0 W/m2
02:21 2.4 °C 1.1 °C 1003.3 hPa WNW 14.5 km/h 22.5 km/h 91 % 0 mm 0 W/m2
02:26 2.4 °C 1.1 °C 1002.9 hPa WNW 9.7 km/h 12.9 km/h 91 % 0 mm 0 W/m2
02:31 2.4 °C 1.1 °C 1003.3 hPa West 6.4 km/h 20.9 km/h 91 % 0 mm 0 W/m2
02:36 2.4 °C 1.1 °C 1003.3 hPa WNW 12.9 km/h 20.9 km/h 91 % 0 mm 0 W/m2
02:41 2.4 °C 1.1 °C 1003.3 hPa WNW 12.9 km/h 24.1 km/h 91 % 0 mm 0 W/m2
02:46 2.4 °C 1.1 °C 1003.3 hPa West 6.4 km/h 19.3 km/h 91 % 0 mm 0 W/m2
02:51 2.3 °C 1 °C 1003.6 hPa West 11.3 km/h 19.3 km/h 91 % 0 mm 0 W/m2
02:56 2.3 °C 1 °C 1003.6 hPa WNW 4.8 km/h 9.7 km/h 91 % 0 mm 0 W/m2
03:01 2.3 °C 0.8 °C 1003.6 hPa West 1.6 km/h 3.2 km/h 90 % 0 mm 0 W/m2
03:06 2.2 °C 0.7 °C 1003.6 hPa West 1.6 km/h 8 km/h 90 % 0 mm 0 W/m2
03:11 2.1 °C 0.6 °C 1003.6 hPa WNW 3.2 km/h 8 km/h 90 % 0 mm 0 W/m2
03:16 2.1 °C 0.8 °C 1003.6 hPa WSW 8 km/h 16.1 km/h 91 % 0 mm 0 W/m2
03:21 2.2 °C 0.9 °C 1003.6 hPa WSW 3.2 km/h 9.7 km/h 91 % 0 mm 0 W/m2
03:26 2.1 °C 0.8 °C 1003.6 hPa WNW 9.7 km/h 16.1 km/h 91 % 0 mm 0 W/m2
03:31 2.1 °C 0.8 °C 1003.6 hPa West 8 km/h 16.1 km/h 91 % 0 mm 0 W/m2
03:36 2.1 °C 0.8 °C 1003.6 hPa West 9.7 km/h 19.3 km/h 91 % 0 mm 0 W/m2
03:41 2.1 °C 0.8 °C 1003.6 hPa West 12.9 km/h 19.3 km/h 91 % 0 mm 0 W/m2
03:46 2.2 °C 0.9 °C 1003.6 hPa West 16.1 km/h 29 km/h 91 % 0 mm 0 W/m2
03:51 2.2 °C 0.9 °C 1003.3 hPa West 12.9 km/h 20.9 km/h 91 % 0 mm 0 W/m2
03:56 2.2 °C 0.9 °C 1003.6 hPa West 11.3 km/h 19.3 km/h 91 % 0 mm 0 W/m2
04:01 2.2 °C 0.9 °C 1003.6 hPa West 14.5 km/h 22.5 km/h 91 % 0 mm 0 W/m2
04:06 2.2 °C 0.9 °C 1003.6 hPa West 14.5 km/h 24.1 km/h 91 % 0 mm 0 W/m2
04:12 2.2 °C 0.7 °C 1003.6 hPa West 14.5 km/h 20.9 km/h 90 % 0 mm 0 W/m2
04:17 2.3 °C 0.8 °C 1003.6 hPa West 12.9 km/h 19.3 km/h 90 % 0 mm 0 W/m2
04:22 2.3 °C 0.8 °C 1003.6 hPa West 12.9 km/h 24.1 km/h 90 % 0 mm 0 W/m2
04:27 2.3 °C 0.8 °C 1003.6 hPa West 16.1 km/h 30.6 km/h 90 % 0 mm 0 W/m2
04:32 2.4 °C 0.9 °C 1003.6 hPa West 12.9 km/h 17.7 km/h 90 % 0 mm 0 W/m2
04:37 2.4 °C 0.9 °C 1003.6 hPa West 12.9 km/h 20.9 km/h 90 % 0 mm 0 W/m2
04:42 2.4 °C 0.9 °C 1003.6 hPa West 9.7 km/h 14.5 km/h 90 % 0 mm 0 W/m2
04:47 2.3 °C 0.8 °C 1003.6 hPa WSW 14.5 km/h 20.9 km/h 90 % 0 mm 0 W/m2
04:52 2.3 °C 0.8 °C 1003.6 hPa West 11.3 km/h 20.9 km/h 90 % 0 mm 0 W/m2
04:57 2.2 °C 0.7 °C 1003.6 hPa West 11.3 km/h 22.5 km/h 90 % 0 mm 0 W/m2
05:02 2.1 °C 0.6 °C 1003.6 hPa West 16.1 km/h 24.1 km/h 90 % 0 mm 0 W/m2
05:07 2 °C 0.6 °C 1003.6 hPa West 14.5 km/h 19.3 km/h 90 % 0 mm 0 W/m2
05:12 1.9 °C 0.6 °C 1003.6 hPa West 14.5 km/h 24.1 km/h 91 % 0 mm 0 W/m2
05:17 2 °C 0.7 °C 1003.6 hPa West 12.9 km/h 22.5 km/h 91 % 0 mm 0 W/m2
05:22 1.9 °C 0.6 °C 1003.6 hPa West 16.1 km/h 25.7 km/h 91 % 0 mm 0 W/m2
05:27 2 °C 0.7 °C 1003.6 hPa West 16.1 km/h 24.1 km/h 91 % 0 mm 0 W/m2
05:32 2 °C 0.7 °C 1003.9 hPa WNW 17.7 km/h 24.1 km/h 91 % 0 mm 0 W/m2
05:37 2.1 °C 0.8 °C 1003.6 hPa West 22.5 km/h 35.4 km/h 91 % 0 mm 0 W/m2
05:42 2.1 °C 0.8 °C 1003.6 hPa West 19.3 km/h 29 km/h 91 % 0 mm 0 W/m2
05:47 1.9 °C 0.6 °C 1003.6 hPa West 14.5 km/h 20.9 km/h 91 % 0 mm 0 W/m2
05:52 1.9 °C 0.7 °C 1003.6 hPa West 17.7 km/h 29 km/h 92 % 0 mm 0 W/m2
05:57 1.9 °C 0.7 °C 1003.6 hPa West 22.5 km/h 33.8 km/h 92 % 0 mm 0 W/m2
06:02 1.9 °C 0.7 °C 1003.6 hPa West 20.9 km/h 33.8 km/h 92 % 0 mm 0 W/m2
06:07 1.9 °C 0.7 °C 1003.6 hPa West 17.7 km/h 25.7 km/h 92 % 0 mm 0 W/m2
06:12 1.8 °C 0.5 °C 1003.9 hPa West 16.1 km/h 24.1 km/h 91 % 0 mm 0 W/m2
06:17 1.8 °C 0.6 °C 1003.9 hPa West 16.1 km/h 22.5 km/h 92 % 0 mm 0 W/m2
06:22 1.8 °C 0.6 °C 1003.9 hPa West 16.1 km/h 24.1 km/h 92 % 0 mm 0 W/m2
06:27 1.8 °C 0.6 °C 1003.9 hPa West 16.1 km/h 32.2 km/h 92 % 0 mm 0 W/m2
06:32 1.8 °C 0.5 °C 1003.9 hPa West 12.9 km/h 20.9 km/h 91 % 0 mm 0 W/m2
06:37 1.9 °C 0.6 °C 1003.9 hPa West 17.7 km/h 24.1 km/h 91 % 0 mm 0 W/m2
06:42 1.9 °C 0.6 °C 1003.9 hPa West 17.7 km/h 29 km/h 91 % 0.25 mm 0 W/m2
06:47 1.8 °C 0.5 °C 1003.9 hPa West 14.5 km/h 22.5 km/h 91 % 0.25 mm 0 W/m2
06:52 1.8 °C 0.6 °C 1003.9 hPa West 16.1 km/h 22.5 km/h 92 % 0.25 mm 0 W/m2
06:57 1.8 °C 0.6 °C 1003.9 hPa West 16.1 km/h 22.5 km/h 92 % 0.25 mm 0 W/m2
07:02 1.8 °C 0.6 °C 1003.9 hPa WSW 17.7 km/h 25.7 km/h 92 % 0.25 mm 0 W/m2
07:07 1.9 °C 0.7 °C 1003.9 hPa West 17.7 km/h 25.7 km/h 92 % 0.25 mm 0 W/m2
07:12 2 °C 0.8 °C 1003.9 hPa West 19.3 km/h 32.2 km/h 92 % 0.25 mm 0 W/m2
07:17 2 °C 0.8 °C 1004.3 hPa West 16.1 km/h 25.7 km/h 92 % 0.25 mm 0 W/m2
07:22 2 °C 0.8 °C 1004.3 hPa West 16.1 km/h 24.1 km/h 92 % 0.25 mm 0 W/m2
07:27 2 °C 0.8 °C 1004.3 hPa West 12.9 km/h 19.3 km/h 92 % 0.25 mm 0 W/m2
07:32 1.9 °C 0.7 °C 1004.3 hPa West 12.9 km/h 19.3 km/h 92 % 0.25 mm 0 W/m2
07:37 1.8 °C 0.6 °C 1004.3 hPa West 14.5 km/h 22.5 km/h 92 % 0.25 mm 0 W/m2
07:42 1.8 °C 0.6 °C 1004.3 hPa West 11.3 km/h 17.7 km/h 92 % 0 mm 0 W/m2
07:47 1.8 °C 0.6 °C 1004.3 hPa West 12.9 km/h 19.3 km/h 92 % 0 mm 0 W/m2
07:52 1.9 °C 0.7 °C 1004.3 hPa West 11.3 km/h 16.1 km/h 92 % 0 mm 0 W/m2
07:58 1.9 °C 0.7 °C 1004.3 hPa West 12.9 km/h 19.3 km/h 92 % 0 mm 0 W/m2
08:03 1.9 °C 0.6 °C 1004.3 hPa West 9.7 km/h 12.9 km/h 91 % 0 mm 5 W/m2
08:08 1.9 °C 0.7 °C 1004.3 hPa WSW 12.9 km/h 17.7 km/h 92 % 0 mm 0 W/m2
08:13 1.9 °C 0.7 °C 1004.3 hPa West 11.3 km/h 20.9 km/h 92 % 0 mm 0 W/m2
08:18 1.9 °C 0.7 °C 1004.3 hPa WSW 16.1 km/h 22.5 km/h 92 % 0 mm 5 W/m2
08:23 1.9 °C 0.6 °C 1004.3 hPa West 14.5 km/h 22.5 km/h 91 % 0 mm 7 W/m2
08:28 2 °C 0.7 °C 1004.3 hPa West 14.5 km/h 25.7 km/h 91 % 0 mm 9 W/m2
08:33 2 °C 0.7 °C 1004.3 hPa West 16.1 km/h 29 km/h 91 % 0 mm 12 W/m2
08:38 2.1 °C 0.8 °C 1004.3 hPa West 16.1 km/h 25.7 km/h 91 % 0 mm 14 W/m2
08:43 2.1 °C 0.8 °C 1004.3 hPa WSW 16.1 km/h 22.5 km/h 91 % 0 mm 14 W/m2
08:48 2.1 °C 0.6 °C 1004.6 hPa West 14.5 km/h 29 km/h 90 % 0 mm 14 W/m2
08:53 2.2 °C 0.7 °C 1004.6 hPa West 17.7 km/h 30.6 km/h 90 % 0 mm 9 W/m2
08:58 2.2 °C 0.7 °C 1004.6 hPa West 14.5 km/h 24.1 km/h 90 % 0 mm 25 W/m2
09:03 2.2 °C 0.7 °C 1004.6 hPa West 12.9 km/h 20.9 km/h 90 % 0 mm 18 W/m2
09:08 2.1 °C 0.8 °C 1004.6 hPa West 12.9 km/h 19.3 km/h 91 % 0 mm 19 W/m2
09:13 2.1 °C 0.8 °C 1004.6 hPa West 14.5 km/h 24.1 km/h 91 % 0 mm 21 W/m2
09:18 2.1 °C 0.8 °C 1004.6 hPa West 17.7 km/h 25.7 km/h 91 % 0 mm 25 W/m2
09:23 2.1 °C 0.8 °C 1004.6 hPa West 17.7 km/h 33.8 km/h 91 % 0 mm 28 W/m2
09:28 2.1 °C 0.8 °C 1004.6 hPa West 16.1 km/h 24.1 km/h 91 % 0 mm 86 W/m2
09:33 2.2 °C 0.9 °C 1004.6 hPa West 11.3 km/h 29 km/h 91 % 0 mm 148 W/m2
09:38 2.3 °C 1 °C 1004.6 hPa West 14.5 km/h 24.1 km/h 91 % 0 mm 84 W/m2
09:43 2.3 °C 1 °C 1004.6 hPa West 8 km/h 12.9 km/h 91 % 0 mm 47 W/m2
09:48 2.3 °C 1 °C 1004.3 hPa WSW 11.3 km/h 19.3 km/h 91 % 0 mm 104 W/m2
09:53 2.4 °C 1.1 °C 1004.3 hPa West 14.5 km/h 24.1 km/h 91 % 0 mm 176 W/m2
09:58 2.6 °C 1.3 °C 1004.6 hPa West 14.5 km/h 30.6 km/h 91 % 0 mm 171 W/m2
10:03 2.7 °C 1.2 °C 1004.3 hPa West 14.5 km/h 22.5 km/h 90 % 0 mm 84 W/m2
10:08 2.8 °C 1.3 °C 1004.3 hPa West 12.9 km/h 20.9 km/h 90 % 0 mm 62 W/m2
10:13 2.7 °C 1.1 °C 1004.3 hPa West 16.1 km/h 24.1 km/h 89 % 0 mm 54 W/m2
10:18 2.7 °C 1.1 °C 1004.6 hPa West 17.7 km/h 25.7 km/h 89 % 0 mm 40 W/m2
10:23 2.7 °C 1.1 °C 1004.3 hPa WSW 19.3 km/h 25.7 km/h 89 % 0 mm 32 W/m2
10:28 2.7 °C 1.1 °C 1004.3 hPa WSW 14.5 km/h 24.1 km/h 89 % 0 mm 40 W/m2
10:33 2.6 °C 0.9 °C 1004.3 hPa WSW 12.9 km/h 22.5 km/h 89 % 0 mm 58 W/m2
10:38 2.6 °C 1.1 °C 1004.3 hPa West 12.9 km/h 19.3 km/h 90 % 0 mm 77 W/m2
10:43 2.6 °C 1.1 °C 1004.3 hPa West 16.1 km/h 29 km/h 90 % 0 mm 95 W/m2
10:48 2.6 °C 1.1 °C 1004.3 hPa West 11.3 km/h 19.3 km/h 90 % 0 mm 172 W/m2
10:53 2.8 °C 1.3 °C 1004.3 hPa West 22.5 km/h 37 km/h 90 % 0 mm 113 W/m2
10:58 3.1 °C 1.4 °C 1004.3 hPa West 20.9 km/h 35.4 km/h 89 % 0 mm 229 W/m2
11:03 3.2 °C 1.4 °C 1004.3 hPa West 19.3 km/h 32.2 km/h 88 % 0 mm 294 W/m2
11:08 3.5 °C 1.6 °C 1004.3 hPa West 19.3 km/h 25.7 km/h 87 % 0 mm 265 W/m2
11:13 3.7 °C 1.7 °C 1004.3 hPa West 14.5 km/h 25.7 km/h 87 % 0 mm 179 W/m2
11:18 3.6 °C 1.5 °C 1004.3 hPa West 24.1 km/h 40.2 km/h 86 % 0 mm 272 W/m2
11:24 3.5 °C 1.7 °C 1004.3 hPa West 19.3 km/h 30.6 km/h 88 % 0 mm 294 W/m2
11:29 3.6 °C 1.8 °C 1004.3 hPa West 17.7 km/h 25.7 km/h 88 % 0 mm 301 W/m2
11:34 3.7 °C 1.7 °C 1003.9 hPa West 17.7 km/h 33.8 km/h 87 % 0 mm 313 W/m2
11:39 3.8 °C 1.8 °C 1003.9 hPa West 19.3 km/h 33.8 km/h 87 % 0 mm 250 W/m2
11:44 3.9 °C 1.8 °C 1003.9 hPa West 24.1 km/h 40.2 km/h 86 % 0 mm 84 W/m2
11:49 3.8 °C 1.5 °C 1003.9 hPa West 17.7 km/h 29 km/h 85 % 0 mm 171 W/m2
11:54 3.7 °C 1.6 °C 1003.9 hPa West 27.4 km/h 43.5 km/h 86 % 0 mm 102 W/m2
11:59 3.5 °C 1.4 °C 1003.9 hPa West 20.9 km/h 32.2 km/h 86 % 0 mm 120 W/m2
12:04 3.5 °C 1.7 °C 1003.9 hPa West 19.3 km/h 33.8 km/h 88 % 0 mm 336 W/m2
12:09 3.6 °C 1.8 °C 1003.9 hPa West 24.1 km/h 37 km/h 88 % 0 mm 151 W/m2
12:14 3.6 °C 1.8 °C 1003.9 hPa West 20.9 km/h 32.2 km/h 88 % 0.25 mm 137 W/m2
12:19 3.6 °C 1.9 °C 1003.9 hPa West 19.3 km/h 33.8 km/h 89 % 0.25 mm 332 W/m2
12:24 3.9 °C 2.1 °C 1003.9 hPa West 25.7 km/h 45.1 km/h 88 % 0.25 mm 323 W/m2
12:29 4.3 °C 2.2 °C 1003.6 hPa West 24.1 km/h 38.6 km/h 86 % 0.25 mm 329 W/m2
12:34 4.6 °C 2.3 °C 1003.9 hPa West 20.9 km/h 33.8 km/h 85 % 0.25 mm 359 W/m2
12:39 4.7 °C 2.1 °C 1003.9 hPa West 27.4 km/h 40.2 km/h 83 % 0.25 mm 464 W/m2
12:44 4.9 °C 2.1 °C 1003.9 hPa West 30.6 km/h 41.8 km/h 82 % 0.25 mm 468 W/m2
12:49 5 °C 2.2 °C 1003.9 hPa West 22.5 km/h 37 km/h 82 % 0.25 mm 403 W/m2
12:54 5.2 °C 2.4 °C 1003.9 hPa WSW 20.9 km/h 37 km/h 82 % 0.25 mm 345 W/m2
12:59 5.3 °C 2.1 °C 1003.9 hPa West 24.1 km/h 37 km/h 80 % 0.25 mm 313 W/m2
13:04 5.3 °C 2.1 °C 1003.9 hPa West 20.9 km/h 32.2 km/h 80 % 0.25 mm 343 W/m2
13:09 5.4 °C 2.2 °C 1003.9 hPa West 20.9 km/h 32.2 km/h 80 % 0.25 mm 338 W/m2
13:14 5.5 °C 2.2 °C 1003.6 hPa West 24.1 km/h 37 km/h 79 % 0 mm 330 W/m2
13:19 5.5 °C 2.2 °C 1003.9 hPa WSW 19.3 km/h 35.4 km/h 79 % 0 mm 278 W/m2
13:24 5.4 °C 1.9 °C 1003.6 hPa WSW 20.9 km/h 32.2 km/h 78 % 0 mm 295 W/m2
13:29 5.3 °C 1.8 °C 1003.9 hPa WSW 20.9 km/h 32.2 km/h 78 % 0 mm 295 W/m2
13:34 5.3 °C 1.8 °C 1003.9 hPa West 22.5 km/h 37 km/h 78 % 0 mm 111 W/m2
13:39 5.1 °C 1.6 °C 1003.9 hPa WSW 22.5 km/h 30.6 km/h 78 % 0 mm 95 W/m2
13:44 5 °C 1.5 °C 1003.9 hPa WSW 19.3 km/h 30.6 km/h 78 % 0 mm 151 W/m2
13:49 4.9 °C 1.6 °C 1003.9 hPa West 22.5 km/h 35.4 km/h 79 % 0 mm 214 W/m2
13:54 4.9 °C 1.7 °C 1003.9 hPa West 24.1 km/h 35.4 km/h 80 % 0 mm 339 W/m2
13:59 4.9 °C 1.9 °C 1003.9 hPa West 14.5 km/h 20.9 km/h 81 % 0 mm 123 W/m2
14:04 4.9 °C 1.9 °C 1003.9 hPa West 16.1 km/h 24.1 km/h 81 % 0 mm 81 W/m2
14:09 4.8 °C 1.8 °C 1003.9 hPa West 12.9 km/h 19.3 km/h 81 % 0 mm 204 W/m2
14:14 4.9 °C 1.6 °C 1003.9 hPa West 19.3 km/h 30.6 km/h 79 % 0 mm 98 W/m2
14:19 4.9 °C 1.7 °C 1003.9 hPa West 11.3 km/h 19.3 km/h 80 % 0 mm 69 W/m2
14:24 4.9 °C 1.7 °C 1003.9 hPa West 12.9 km/h 22.5 km/h 80 % 0 mm 97 W/m2
14:29 4.8 °C 1.7 °C 1003.9 hPa West 9.7 km/h 14.5 km/h 80 % 0 mm 86 W/m2
14:34 4.8 °C 1.4 °C 1003.9 hPa WSW 12.9 km/h 20.9 km/h 79 % 0 mm 109 W/m2
14:39 4.9 °C 1.7 °C 1003.9 hPa West 14.5 km/h 22.5 km/h 80 % 0 mm 135 W/m2
14:44 5.1 °C 1.8 °C 1003.9 hPa West 12.9 km/h 25.7 km/h 79 % 0 mm 104 W/m2
14:49 5.1 °C 1.6 °C 1003.9 hPa West 14.5 km/h 20.9 km/h 78 % 0 mm 83 W/m2
14:54 5.1 °C 1.6 °C 1003.9 hPa West 12.9 km/h 22.5 km/h 78 % 0 mm 156 W/m2
14:59 5.2 °C 1.5 °C 1003.9 hPa West 14.5 km/h 24.1 km/h 77 % 0 mm 144 W/m2
15:04 5.2 °C 1.5 °C 1003.9 hPa West 14.5 km/h 20.9 km/h 77 % 0 mm 165 W/m2
15:09 5.2 °C 1.5 °C 1003.9 hPa WSW 9.7 km/h 16.1 km/h 77 % 0 mm 178 W/m2
15:14 5.1 °C 1.4 °C 1003.6 hPa WSW 9.7 km/h 14.5 km/h 77 % 0 mm 88 W/m2
15:20 5 °C 1.3 °C 1003.9 hPa West 11.3 km/h 20.9 km/h 77 % 0 mm 86 W/m2
15:25 4.9 °C 1.2 °C 1003.9 hPa WSW 17.7 km/h 30.6 km/h 77 % 0 mm 42 W/m2
15:30 4.7 °C 1.2 °C 1003.9 hPa West 16.1 km/h 24.1 km/h 78 % 0 mm 21 W/m2
15:35 4.6 °C 1.4 °C 1003.9 hPa West 16.1 km/h 25.7 km/h 80 % 0 mm 14 W/m2
15:40 4.3 °C 1.3 °C 1004.3 hPa WNW 12.9 km/h 19.3 km/h 81 % 0 mm 12 W/m2
15:45 4.2 °C 1.6 °C 1003.9 hPa WNW 8 km/h 16.1 km/h 83 % 0 mm 0 W/m2
15:50 4.1 °C 1.6 °C 1004.3 hPa West 9.7 km/h 14.5 km/h 84 % 0 mm 0 W/m2
15:55 3.9 °C 1.6 °C 1003.9 hPa WSW 11.3 km/h 22.5 km/h 85 % 0 mm 9 W/m2
16:00 3.7 °C 1.4 °C 1003.6 hPa WSW 6.4 km/h 12.9 km/h 85 % 0 mm 12 W/m2
16:05 3.5 °C 1.4 °C 1003.6 hPa West 4.8 km/h 11.3 km/h 86 % 0.25 mm 9 W/m2
16:10 3.3 °C 1.3 °C 1003.9 hPa West 4.8 km/h 9.7 km/h 87 % 0.25 mm 7 W/m2
16:15 3.2 °C 1.2 °C 1003.6 hPa WSW 6.4 km/h 12.9 km/h 87 % 0.25 mm 7 W/m2
16:20 3.1 °C 1.2 °C 1003.6 hPa West 6.4 km/h 22.5 km/h 87 % 0.25 mm 5 W/m2
16:25 3.2 °C 1.2 °C 1003.6 hPa West 29 km/h 49.9 km/h 87 % 0.25 mm 5 W/m2
16:30 3.2 °C 1.2 °C 1003.6 hPa West 19.3 km/h 29 km/h 87 % 0.25 mm 0 W/m2
16:35 3.1 °C 1.2 °C 1003.6 hPa West 22.5 km/h 38.6 km/h 87 % 0.25 mm 0 W/m2
16:40 3 °C 1.1 °C 1003.6 hPa West 19.3 km/h 37 km/h 87 % 0.25 mm 0 W/m2
16:45 2.9 °C 0.9 °C 1003.6 hPa West 22.5 km/h 38.6 km/h 87 % 0.25 mm 0 W/m2
16:50 2.9 °C 0.9 °C 1003.6 hPa West 17.7 km/h 33.8 km/h 87 % 0.25 mm 0 W/m2
16:55 2.9 °C 0.9 °C 1003.6 hPa West 19.3 km/h 32.2 km/h 87 % 0.25 mm 0 W/m2
17:00 2.9 °C 0.9 °C 1003.6 hPa West 11.3 km/h 19.3 km/h 87 % 0.25 mm 0 W/m2
17:05 2.9 °C 0.9 °C 1003.3 hPa West 14.5 km/h 30.6 km/h 87 % 0 mm 0 W/m2
17:10 2.9 °C 0.9 °C 1003.3 hPa West 20.9 km/h 32.2 km/h 87 % 0 mm 0 W/m2
17:15 3.1 °C 1.2 °C 1003.3 hPa West 24.1 km/h 38.6 km/h 87 % 0 mm 0 W/m2
17:20 3.2 °C 1.1 °C 1003.6 hPa West 19.3 km/h 35.4 km/h 86 % 0 mm 0 W/m2
17:25 3.2 °C 1.1 °C 1003.3 hPa West 14.5 km/h 20.9 km/h 86 % 0 mm 0 W/m2
17:30 3.2 °C 1.1 °C 1003.6 hPa West 24.1 km/h 38.6 km/h 86 % 0 mm 0 W/m2
17:35 3.3 °C 1 °C 1003.6 hPa West 17.7 km/h 25.7 km/h 85 % 0 mm 0 W/m2
17:40 3.3 °C 1 °C 1003.3 hPa West 17.7 km/h 32.2 km/h 85 % 0 mm 0 W/m2
17:45 3.3 °C 1 °C 1003.3 hPa West 25.7 km/h 38.6 km/h 85 % 0 mm 0 W/m2
17:50 3.3 °C 1 °C 1003.3 hPa West 20.9 km/h 38.6 km/h 85 % 0 mm 0 W/m2
17:55 3.3 °C 1 °C 1002.9 hPa West 27.4 km/h 49.9 km/h 85 % 0 mm 0 W/m2
18:00 3.3 °C 1 °C 1002.9 hPa West 22.5 km/h 40.2 km/h 85 % 0 mm 0 W/m2
18:05 3.4 °C 0.9 °C 1002.9 hPa West 25.7 km/h 41.8 km/h 84 % 0 mm 0 W/m2
18:10 3.4 °C 0.9 °C 1003.3 hPa West 24.1 km/h 45.1 km/h 84 % 0 mm 0 W/m2
18:15 3.4 °C 0.9 °C 1003.3 hPa West 27.4 km/h 38.6 km/h 84 % 0 mm 0 W/m2
18:20 3.3 °C 0.8 °C 1003.3 hPa West 19.3 km/h 32.2 km/h 84 % 0 mm 0 W/m2
18:25 3.3 °C 0.8 °C 1003.3 hPa West 25.7 km/h 40.2 km/h 84 % 0 mm 0 W/m2
18:31 3.3 °C 0.8 °C 1002.9 hPa West 25.7 km/h 46.7 km/h 84 % 0 mm 0 W/m2
18:36 3.3 °C 0.8 °C 1003.3 hPa West 29 km/h 46.7 km/h 84 % 0 mm 0 W/m2
18:41 3.3 °C 0.8 °C 1003.3 hPa West 32.2 km/h 45.1 km/h 84 % 0 mm 0 W/m2
18:46 3.3 °C 0.8 °C 1002.9 hPa West 27.4 km/h 43.5 km/h 84 % 0 mm 0 W/m2
18:51 3.3 °C 0.7 °C 1002.9 hPa West 25.7 km/h 40.2 km/h 83 % 0 mm 0 W/m2
18:56 3.3 °C 0.7 °C 1002.9 hPa West 25.7 km/h 38.6 km/h 83 % 0 mm 0 W/m2
19:01 3.3 °C 0.7 °C 1002.9 hPa West 30.6 km/h 49.9 km/h 83 % 0 mm 0 W/m2
19:06 3.3 °C 0.7 °C 1003.3 hPa West 29 km/h 46.7 km/h 83 % 0 mm 0 W/m2
19:11 3.3 °C 0.7 °C 1003.3 hPa West 24.1 km/h 37 km/h 83 % 0 mm 0 W/m2
19:16 3.3 °C 0.8 °C 1003.3 hPa West 27.4 km/h 40.2 km/h 84 % 0 mm 0 W/m2
19:21 3.3 °C 0.7 °C 1003.6 hPa West 25.7 km/h 45.1 km/h 83 % 0 mm 0 W/m2
19:26 3.3 °C 0.7 °C 1003.6 hPa West 27.4 km/h 38.6 km/h 83 % 0 mm 0 W/m2
19:31 3.3 °C 0.7 °C 1003.6 hPa West 25.7 km/h 40.2 km/h 83 % 0 mm 0 W/m2
19:36 3.3 °C 0.7 °C 1003.9 hPa West 20.9 km/h 32.2 km/h 83 % 0 mm 0 W/m2
19:41 3.2 °C 0.8 °C 1003.9 hPa West 20.9 km/h 32.2 km/h 84 % 0 mm 0 W/m2
19:46 3.3 °C 0.8 °C 1003.9 hPa West 22.5 km/h 33.8 km/h 84 % 0 mm 0 W/m2
19:51 3.3 °C 0.8 °C 1003.9 hPa West 27.4 km/h 43.5 km/h 84 % 0 mm 0 W/m2
19:56 3.3 °C 0.8 °C 1004.3 hPa West 27.4 km/h 38.6 km/h 84 % 0 mm 0 W/m2
20:01 3.1 °C 1 °C 1004.3 hPa West 25.7 km/h 41.8 km/h 86 % 0 mm 0 W/m2
20:06 2.8 °C 1 °C 1004.3 hPa West 24.1 km/h 40.2 km/h 88 % 0 mm 0 W/m2
20:11 2.7 °C 1.1 °C 1004.3 hPa West 17.7 km/h 29 km/h 89 % 0 mm 0 W/m2
20:16 2.6 °C 1.1 °C 1004.3 hPa WSW 16.1 km/h 29 km/h 90 % 0 mm 0 W/m2
20:21 2.6 °C 1.1 °C 1004.3 hPa WSW 24.1 km/h 38.6 km/h 90 % 0.25 mm 0 W/m2
20:26 2.4 °C 1.1 °C 1004.3 hPa West 22.5 km/h 35.4 km/h 91 % 0.25 mm 0 W/m2
20:31 2.3 °C 1 °C 1004.3 hPa West 17.7 km/h 35.4 km/h 91 % 0.51 mm 0 W/m2
20:36 2.3 °C 1 °C 1004.3 hPa West 17.7 km/h 29 km/h 91 % 0.51 mm 0 W/m2
20:41 2.2 °C 1.1 °C 1004.3 hPa WSW 16.1 km/h 25.7 km/h 92 % 0.51 mm 0 W/m2
20:46 2.2 °C 1.1 °C 1004.3 hPa West 16.1 km/h 22.5 km/h 92 % 0.51 mm 0 W/m2
20:51 2.2 °C 1.1 °C 1004.3 hPa West 14.5 km/h 22.5 km/h 92 % 0.51 mm 0 W/m2
20:56 2.2 °C 1.1 °C 1004.3 hPa West 11.3 km/h 24.1 km/h 92 % 0.51 mm 0 W/m2
21:01 2.2 °C 1.1 °C 1004.3 hPa West 12.9 km/h 19.3 km/h 92 % 0.51 mm 0 W/m2
21:06 2.1 °C 0.9 °C 1004.3 hPa West 11.3 km/h 17.7 km/h 92 % 0.51 mm 0 W/m2
21:11 2.1 °C 0.9 °C 1003.9 hPa WSW 11.3 km/h 22.5 km/h 92 % 0.51 mm 0 W/m2
21:16 2 °C 0.8 °C 1004.3 hPa West 12.9 km/h 22.5 km/h 92 % 0.25 mm 0 W/m2
21:21 1.9 °C 0.7 °C 1004.3 hPa West 11.3 km/h 19.3 km/h 92 % 0.25 mm 0 W/m2
21:26 2 °C 0.8 °C 1004.3 hPa WNW 12.9 km/h 20.9 km/h 92 % 0.25 mm 0 W/m2
21:31 2.1 °C 0.9 °C 1004.3 hPa West 16.1 km/h 22.5 km/h 92 % 0 mm 0 W/m2
21:36 2.1 °C 0.9 °C 1004.3 hPa West 12.9 km/h 20.9 km/h 92 % 0 mm 0 W/m2
21:41 2.1 °C 0.9 °C 1004.3 hPa West 12.9 km/h 20.9 km/h 92 % 0 mm 0 W/m2
21:46 2.1 °C 0.9 °C 1004.3 hPa West 11.3 km/h 16.1 km/h 92 % 0 mm 0 W/m2
21:51 2.1 °C 0.9 °C 1004.3 hPa West 14.5 km/h 24.1 km/h 92 % 0 mm 0 W/m2
21:57 2.2 °C 1.1 °C 1004.3 hPa West 14.5 km/h 24.1 km/h 92 % 0 mm 0 W/m2
22:01 2.3 °C 1.1 °C 1004.3 hPa West 12.9 km/h 20.9 km/h 92 % 0 mm 0 W/m2
22:07 2.3 °C 1.1 °C 1004.3 hPa West 14.5 km/h 20.9 km/h 92 % 0 mm 0 W/m2
22:12 2.3 °C 1.1 °C 1004.3 hPa West 12.9 km/h 19.3 km/h 92 % 0 mm 0 W/m2
22:17 2.3 °C 1.1 °C 1004.3 hPa West 12.9 km/h 22.5 km/h 92 % 0 mm 0 W/m2
22:22 2.3 °C 1.1 °C 1004.3 hPa West 16.1 km/h 22.5 km/h 92 % 0 mm 0 W/m2
22:27 2.4 °C 1.2 °C 1004.3 hPa West 17.7 km/h 29 km/h 92 % 0 mm 0 W/m2
22:32 2.4 °C 1.2 °C 1004.3 hPa West 12.9 km/h 20.9 km/h 92 % 0 mm 0 W/m2
22:37 2.4 °C 1.2 °C 1003.9 hPa West 14.5 km/h 24.1 km/h 92 % 0 mm 0 W/m2
22:42 2.5 °C 1.2 °C 1003.9 hPa West 17.7 km/h 25.7 km/h 91 % 0 mm 0 W/m2
22:47 2.6 °C 1.3 °C 1004.3 hPa West 14.5 km/h 22.5 km/h 91 % 0 mm 0 W/m2
22:52 2.6 °C 1.3 °C 1004.3 hPa West 16.1 km/h 24.1 km/h 91 % 0 mm 0 W/m2
22:57 2.5 °C 1.2 °C 1004.3 hPa West 16.1 km/h 25.7 km/h 91 % 0 mm 0 W/m2
23:02 2.4 °C 1.1 °C 1004.3 hPa West 16.1 km/h 29 km/h 91 % 0 mm 0 W/m2
23:07 2.4 °C 1.1 °C 1003.9 hPa West 16.1 km/h 25.7 km/h 91 % 0 mm 0 W/m2
23:12 2.4 °C 1.1 °C 1003.9 hPa West 17.7 km/h 24.1 km/h 91 % 0 mm 0 W/m2
23:17 2.4 °C 1.1 °C 1004.3 hPa West 17.7 km/h 29 km/h 91 % 0 mm 0 W/m2
23:22 2.5 °C 1.2 °C 1004.3 hPa West 19.3 km/h 35.4 km/h 91 % 0 mm 0 W/m2
23:27 2.5 °C 1.2 °C 1004.3 hPa West 17.7 km/h 25.7 km/h 91 % 0 mm 0 W/m2
23:32 2.4 °C 1.1 °C 1003.9 hPa West 14.5 km/h 24.1 km/h 91 % 0 mm 0 W/m2
23:37 2.4 °C 1.1 °C 1003.9 hPa West 16.1 km/h 24.1 km/h 91 % 0 mm 0 W/m2
23:42 2.3 °C 1 °C 1003.6 hPa West 17.7 km/h 22.5 km/h 91 % 0 mm 0 W/m2
23:47 2.4 °C 1.1 °C 1003.6 hPa WNW 17.7 km/h 33.8 km/h 91 % 0 mm 0 W/m2
23:52 2.5 °C 1.2 °C 1003.6 hPa WNW 14.5 km/h 24.1 km/h 91 % 0 mm 0 W/m2
23:57 2.4 °C 1.1 °C 1003.6 hPa West 14.5 km/h 20.9 km/h 91 % 0 mm 0 W/m2
Delerius-Weather
Compliments of Weather Underground - 2.25 mb

Data updates at regular intervals.